sensor_id;sensor_type;location;lat;lon;timestamp;P1;durP1;ratioP1;P2;durP2;ratioP2
20749;SDS011;10535;50.664;4.564;2023-06-26T00:00:05;3.50;;;2.67;;
20749;SDS011;10535;50.664;4.564;2023-06-26T00:02:32;5.33;;;3.47;;
20749;SDS011;10535;50.664;4.564;2023-06-26T00:04:58;3.20;;;2.60;;
20749;SDS011;10535;50.664;4.564;2023-06-26T00:07:29;6.00;;;3.27;;
20749;SDS011;10535;50.664;4.564;2023-06-26T00:09:56;4.80;;;2.87;;
20749;SDS011;10535;50.664;4.564;2023-06-26T00:12:23;5.88;;;3.60;;
20749;SDS011;10535;50.664;4.564;2023-06-26T00:14:49;4.03;;;3.20;;
20749;SDS011;10535;50.664;4.564;2023-06-26T00:17:15;4.90;;;3.50;;
20749;SDS011;10535;50.664;4.564;2023-06-26T00:19:43;4.90;;;3.10;;
20749;SDS011;10535;50.664;4.564;2023-06-26T00:22:09;5.13;;;2.80;;
20749;SDS011;10535;50.664;4.564;2023-06-26T00:24:34;4.53;;;2.33;;
20749;SDS011;10535;50.664;4.564;2023-06-26T00:27:00;5.87;;;3.90;;
20749;SDS011;10535;50.664;4.564;2023-06-26T00:29:27;4.77;;;2.97;;
20749;SDS011;10535;50.664;4.564;2023-06-26T00:31:53;6.23;;;3.10;;
20749;SDS011;10535;50.664;4.564;2023-06-26T00:34:18;5.13;;;2.93;;
20749;SDS011;10535;50.664;4.564;2023-06-26T00:36:45;4.80;;;2.83;;
20749;SDS011;10535;50.664;4.564;2023-06-26T00:39:12;7.43;;;3.60;;
20749;SDS011;10535;50.664;4.564;2023-06-26T00:41:38;5.57;;;3.27;;
20749;SDS011;10535;50.664;4.564;2023-06-26T00:44:05;5.17;;;3.17;;
20749;SDS011;10535;50.664;4.564;2023-06-26T00:46:31;4.80;;;2.80;;
20749;SDS011;10535;50.664;4.564;2023-06-26T00:49:02;6.50;;;3.87;;
20749;SDS011;10535;50.664;4.564;2023-06-26T00:51:29;5.07;;;3.00;;
20749;SDS011;10535;50.664;4.564;2023-06-26T00:53:56;4.40;;;2.73;;
20749;SDS011;10535;50.664;4.564;2023-06-26T00:56:24;6.03;;;3.10;;
20749;SDS011;10535;50.664;4.564;2023-06-26T00:58:50;10.60;;;2.70;;
20749;SDS011;10535;50.664;4.564;2023-06-26T01:01:17;5.57;;;2.70;;
20749;SDS011;10535;50.664;4.564;2023-06-26T01:03:48;5.17;;;2.50;;
20749;SDS011;10535;50.664;4.564;2023-06-26T01:06:19;5.37;;;2.80;;
20749;SDS011;10535;50.664;4.564;2023-06-26T01:08:47;4.00;;;2.70;;
20749;SDS011;10535;50.664;4.564;2023-06-26T01:11:15;7.77;;;2.87;;
20749;SDS011;10535;50.664;4.564;2023-06-26T01:13:42;6.03;;;2.70;;
20749;SDS011;10535;50.664;4.564;2023-06-26T01:16:11;3.50;;;2.80;;
20749;SDS011;10535;50.664;4.564;2023-06-26T01:18:40;3.10;;;2.53;;
20749;SDS011;10535;50.664;4.564;2023-06-26T01:21:07;5.90;;;2.80;;
20749;SDS011;10535;50.664;4.564;2023-06-26T01:26:19;5.90;;;2.77;;
20749;SDS011;10535;50.664;4.564;2023-06-26T01:28:46;4.43;;;2.60;;
20749;SDS011;10535;50.664;4.564;2023-06-26T01:31:14;4.73;;;2.90;;
20749;SDS011;10535;50.664;4.564;2023-06-26T01:33:40;5.70;;;2.77;;
20749;SDS011;10535;50.664;4.564;2023-06-26T01:36:07;5.40;;;2.50;;
20749;SDS011;10535;50.664;4.564;2023-06-26T01:38:34;4.40;;;2.50;;
20749;SDS011;10535;50.664;4.564;2023-06-26T01:41:00;5.10;;;1.97;;
20749;SDS011;10535;50.664;4.564;2023-06-26T01:45:53;4.10;;;2.33;;
20749;SDS011;10535;50.664;4.564;2023-06-26T01:48:27;4.43;;;2.20;;
20749;SDS011;10535;50.664;4.564;2023-06-26T01:50:58;5.03;;;2.53;;
20749;SDS011;10535;50.664;4.564;2023-06-26T01:53:27;6.63;;;2.10;;
20749;SDS011;10535;50.664;4.564;2023-06-26T01:56:08;2.90;;;2.00;;
20749;SDS011;10535;50.664;4.564;2023-06-26T01:58:43;5.40;;;2.37;;
20749;SDS011;10535;50.664;4.564;2023-06-26T02:01:11;5.43;;;2.70;;
20749;SDS011;10535;50.664;4.564;2023-06-26T02:03:38;3.73;;;2.20;;
20749;SDS011;10535;50.664;4.564;2023-06-26T02:06:04;5.30;;;2.47;;
20749;SDS011;10535;50.664;4.564;2023-06-26T02:08:35;5.47;;;2.00;;
20749;SDS011;10535;50.664;4.564;2023-06-26T02:11:01;4.13;;;2.13;;
20749;SDS011;10535;50.664;4.564;2023-06-26T02:13:31;4.50;;;2.83;;
20749;SDS011;10535;50.664;4.564;2023-06-26T02:15:58;3.67;;;2.10;;
20749;SDS011;10535;50.664;4.564;2023-06-26T02:18:24;4.07;;;2.50;;
20749;SDS011;10535;50.664;4.564;2023-06-26T02:20:50;4.33;;;1.97;;
20749;SDS011;10535;50.664;4.564;2023-06-26T02:23:16;4.43;;;2.70;;
20749;SDS011;10535;50.664;4.564;2023-06-26T02:25:43;7.83;;;2.77;;
20749;SDS011;10535;50.664;4.564;2023-06-26T02:28:08;4.10;;;2.37;;
20749;SDS011;10535;50.664;4.564;2023-06-26T02:30:38;5.60;;;2.73;;
20749;SDS011;10535;50.664;4.564;2023-06-26T02:33:07;8.50;;;2.23;;
20749;SDS011;10535;50.664;4.564;2023-06-26T02:35:33;3.63;;;2.30;;
20749;SDS011;10535;50.664;4.564;2023-06-26T02:37:59;6.70;;;3.30;;
20749;SDS011;10535;50.664;4.564;2023-06-26T02:40:25;6.90;;;2.63;;
20749;SDS011;10535;50.664;4.564;2023-06-26T02:42:51;8.27;;;2.67;;
20749;SDS011;10535;50.664;4.564;2023-06-26T02:45:17;3.23;;;2.47;;
20749;SDS011;10535;50.664;4.564;2023-06-26T02:47:43;4.53;;;2.83;;
20749;SDS011;10535;50.664;4.564;2023-06-26T02:50:10;4.37;;;2.43;;
20749;SDS011;10535;50.664;4.564;2023-06-26T02:52:37;4.40;;;2.40;;
20749;SDS011;10535;50.664;4.564;2023-06-26T02:55:04;4.20;;;2.43;;
20749;SDS011;10535;50.664;4.564;2023-06-26T02:57:30;5.40;;;2.30;;
20749;SDS011;10535;50.664;4.564;2023-06-26T02:59:56;8.37;;;3.60;;
20749;SDS011;10535;50.664;4.564;2023-06-26T03:02:22;5.63;;;2.57;;
20749;SDS011;10535;50.664;4.564;2023-06-26T03:04:47;5.53;;;2.83;;
20749;SDS011;10535;50.664;4.564;2023-06-26T03:07:15;4.97;;;2.80;;
20749;SDS011;10535;50.664;4.564;2023-06-26T03:09:41;6.77;;;2.40;;
20749;SDS011;10535;50.664;4.564;2023-06-26T03:12:08;6.53;;;3.00;;
20749;SDS011;10535;50.664;4.564;2023-06-26T03:14:34;4.83;;;2.37;;
20749;SDS011;10535;50.664;4.564;2023-06-26T03:17:00;3.87;;;2.47;;
20749;SDS011;10535;50.664;4.564;2023-06-26T03:19:29;9.77;;;3.30;;
20749;SDS011;10535;50.664;4.564;2023-06-26T03:21:55;4.13;;;2.50;;
20749;SDS011;10535;50.664;4.564;2023-06-26T03:24:20;5.13;;;2.70;;
20749;SDS011;10535;50.664;4.564;2023-06-26T03:26:46;5.37;;;2.87;;
20749;SDS011;10535;50.664;4.564;2023-06-26T03:29:12;7.50;;;2.87;;
20749;SDS011;10535;50.664;4.564;2023-06-26T03:31:37;4.10;;;2.73;;
20749;SDS011;10535;50.664;4.564;2023-06-26T03:34:04;5.47;;;3.20;;
20749;SDS011;10535;50.664;4.564;2023-06-26T03:36:32;6.23;;;3.03;;
20749;SDS011;10535;50.664;4.564;2023-06-26T03:38:58;5.50;;;2.97;;
20749;SDS011;10535;50.664;4.564;2023-06-26T03:41:25;11.70;;;2.70;;
20749;SDS011;10535;50.664;4.564;2023-06-26T03:43:50;5.93;;;2.83;;
20749;SDS011;10535;50.664;4.564;2023-06-26T03:46:17;8.63;;;2.67;;
20749;SDS011;10535;50.664;4.564;2023-06-26T03:48:43;8.63;;;3.10;;
20749;SDS011;10535;50.664;4.564;2023-06-26T03:51:09;8.30;;;3.20;;
20749;SDS011;10535;50.664;4.564;2023-06-26T03:53:34;7.87;;;2.80;;
20749;SDS011;10535;50.664;4.564;2023-06-26T03:56:03;7.63;;;3.40;;
20749;SDS011;10535;50.664;4.564;2023-06-26T03:58:28;6.33;;;3.23;;
20749;SDS011;10535;50.664;4.564;2023-06-26T04:00:54;9.20;;;2.87;;
20749;SDS011;10535;50.664;4.564;2023-06-26T04:03:20;4.53;;;2.70;;
20749;SDS011;10535;50.664;4.564;2023-06-26T04:05:46;8.57;;;3.30;;
20749;SDS011;10535;50.664;4.564;2023-06-26T04:08:12;11.23;;;3.47;;
20749;SDS011;10535;50.664;4.564;2023-06-26T04:10:38;7.07;;;2.67;;
20749;SDS011;10535;50.664;4.564;2023-06-26T04:13:03;6.63;;;2.67;;
20749;SDS011;10535;50.664;4.564;2023-06-26T04:15:29;6.67;;;2.80;;
20749;SDS011;10535;50.664;4.564;2023-06-26T04:17:55;6.27;;;3.07;;
20749;SDS011;10535;50.664;4.564;2023-06-26T04:20:21;7.93;;;3.00;;
20749;SDS011;10535;50.664;4.564;2023-06-26T04:22:47;7.83;;;2.77;;
20749;SDS011;10535;50.664;4.564;2023-06-26T04:25:18;8.90;;;3.00;;
20749;SDS011;10535;50.664;4.564;2023-06-26T04:27:45;5.70;;;3.27;;
20749;SDS011;10535;50.664;4.564;2023-06-26T04:30:11;5.43;;;2.33;;
20749;SDS011;10535;50.664;4.564;2023-06-26T04:32:38;8.47;;;2.70;;
20749;SDS011;10535;50.664;4.564;2023-06-26T04:35:04;6.03;;;2.00;;
20749;SDS011;10535;50.664;4.564;2023-06-26T04:37:29;5.90;;;2.83;;
20749;SDS011;10535;50.664;4.564;2023-06-26T04:39:55;5.77;;;2.40;;
20749;SDS011;10535;50.664;4.564;2023-06-26T04:42:23;10.63;;;2.90;;
20749;SDS011;10535;50.664;4.564;2023-06-26T04:44:49;5.80;;;2.30;;
20749;SDS011;10535;50.664;4.564;2023-06-26T04:47:15;6.00;;;3.43;;
20749;SDS011;10535;50.664;4.564;2023-06-26T04:49:40;5.80;;;2.83;;
20749;SDS011;10535;50.664;4.564;2023-06-26T04:52:10;8.90;;;2.90;;
20749;SDS011;10535;50.664;4.564;2023-06-26T04:54:38;10.20;;;3.37;;
20749;SDS011;10535;50.664;4.564;2023-06-26T04:57:04;6.83;;;2.43;;
20749;SDS011;10535;50.664;4.564;2023-06-26T04:59:30;5.83;;;2.67;;
20749;SDS011;10535;50.664;4.564;2023-06-26T05:01:56;5.47;;;2.43;;
20749;SDS011;10535;50.664;4.564;2023-06-26T05:04:21;5.73;;;2.73;;
20749;SDS011;10535;50.664;4.564;2023-06-26T05:06:48;7.27;;;2.43;;
20749;SDS011;10535;50.664;4.564;2023-06-26T05:09:14;13.53;;;3.10;;
20749;SDS011;10535;50.664;4.564;2023-06-26T05:11:42;5.93;;;2.37;;
20749;SDS011;10535;50.664;4.564;2023-06-26T05:14:08;5.77;;;2.70;;
20749;SDS011;10535;50.664;4.564;2023-06-26T05:16:34;9.60;;;2.87;;
20749;SDS011;10535;50.664;4.564;2023-06-26T05:19:00;6.30;;;2.80;;
20749;SDS011;10535;50.664;4.564;2023-06-26T05:21:27;11.77;;;3.10;;
20749;SDS011;10535;50.664;4.564;2023-06-26T05:23:53;9.87;;;2.67;;
20749;SDS011;10535;50.664;4.564;2023-06-26T05:26:22;7.93;;;2.43;;
20749;SDS011;10535;50.664;4.564;2023-06-26T05:28:49;5.50;;;1.83;;
20749;SDS011;10535;50.664;4.564;2023-06-26T05:31:15;7.23;;;2.30;;
20749;SDS011;10535;50.664;4.564;2023-06-26T05:33:43;9.60;;;2.60;;
20749;SDS011;10535;50.664;4.564;2023-06-26T05:36:09;9.00;;;2.90;;
20749;SDS011;10535;50.664;4.564;2023-06-26T05:38:41;7.67;;;2.60;;
20749;SDS011;10535;50.664;4.564;2023-06-26T05:41:07;6.83;;;2.17;;
20749;SDS011;10535;50.664;4.564;2023-06-26T05:43:33;9.57;;;2.33;;
20749;SDS011;10535;50.664;4.564;2023-06-26T05:46:23;7.30;;;2.30;;
20749;SDS011;10535;50.664;4.564;2023-06-26T05:48:49;9.37;;;2.57;;
20749;SDS011;10535;50.664;4.564;2023-06-26T05:51:14;6.30;;;1.93;;
20749;SDS011;10535;50.664;4.564;2023-06-26T05:53:40;11.15;;;2.30;;
20749;SDS011;10535;50.664;4.564;2023-06-26T05:56:06;7.17;;;2.53;;
20749;SDS011;10535;50.664;4.564;2023-06-26T05:58:32;5.97;;;1.70;;
20749;SDS011;10535;50.664;4.564;2023-06-26T06:00:58;5.00;;;2.07;;
20749;SDS011;10535;50.664;4.564;2023-06-26T06:03:24;6.40;;;2.30;;
20749;SDS011;10535;50.664;4.564;2023-06-26T06:05:49;5.73;;;1.90;;
20749;SDS011;10535;50.664;4.564;2023-06-26T06:08:18;5.33;;;1.63;;
20749;SDS011;10535;50.664;4.564;2023-06-26T06:10:47;1.93;;;1.50;;
20749;SDS011;10535;50.664;4.564;2023-06-26T06:13:13;8.03;;;2.17;;
20749;SDS011;10535;50.664;4.564;2023-06-26T06:15:39;5.77;;;2.20;;
20749;SDS011;10535;50.664;4.564;2023-06-26T06:18:07;5.90;;;1.47;;
20749;SDS011;10535;50.664;4.564;2023-06-26T06:20:40;7.13;;;1.60;;
20749;SDS011;10535;50.664;4.564;2023-06-26T06:23:21;5.47;;;2.03;;
20749;SDS011;10535;50.664;4.564;2023-06-26T06:25:52;4.43;;;1.83;;
20749;SDS011;10535;50.664;4.564;2023-06-26T06:28:17;7.82;;;2.17;;
20749;SDS011;10535;50.664;4.564;2023-06-26T06:30:45;7.78;;;1.90;;
20749;SDS011;10535;50.664;4.564;2023-06-26T06:33:12;7.35;;;1.80;;
20749;SDS011;10535;50.664;4.564;2023-06-26T06:35:41;8.10;;;2.07;;
20749;SDS011;10535;50.664;4.564;2023-06-26T06:38:06;5.70;;;1.63;;
20749;SDS011;10535;50.664;4.564;2023-06-26T06:40:32;5.83;;;1.63;;
20749;SDS011;10535;50.664;4.564;2023-06-26T06:42:57;3.13;;;1.90;;
20749;SDS011;10535;50.664;4.564;2023-06-26T06:45:23;4.20;;;1.80;;
20749;SDS011;10535;50.664;4.564;2023-06-26T06:47:49;3.73;;;1.30;;
20749;SDS011;10535;50.664;4.564;2023-06-26T06:50:14;2.90;;;1.53;;
20749;SDS011;10535;50.664;4.564;2023-06-26T06:52:42;5.45;;;1.60;;
20749;SDS011;10535;50.664;4.564;2023-06-26T06:55:09;6.28;;;2.42;;
20749;SDS011;10535;50.664;4.564;2023-06-26T06:57:35;5.65;;;1.50;;
20749;SDS011;10535;50.664;4.564;2023-06-26T07:00:07;4.88;;;2.13;;
20749;SDS011;10535;50.664;4.564;2023-06-26T07:02:38;4.55;;;1.42;;
20749;SDS011;10535;50.664;4.564;2023-06-26T07:05:04;6.53;;;1.70;;
20749;SDS011;10535;50.664;4.564;2023-06-26T07:07:31;5.32;;;1.45;;
20749;SDS011;10535;50.664;4.564;2023-06-26T07:10:02;8.23;;;2.08;;
20749;SDS011;10535;50.664;4.564;2023-06-26T07:12:30;2.60;;;1.33;;
20749;SDS011;10535;50.664;4.564;2023-06-26T07:14:55;5.88;;;1.42;;
20749;SDS011;10535;50.664;4.564;2023-06-26T07:17:22;4.05;;;1.30;;
20749;SDS011;10535;50.664;4.564;2023-06-26T07:19:48;4.80;;;1.70;;
20749;SDS011;10535;50.664;4.564;2023-06-26T07:22:14;2.55;;;1.15;;
20749;SDS011;10535;50.664;4.564;2023-06-26T07:24:40;2.45;;;1.30;;
20749;SDS011;10535;50.664;4.564;2023-06-26T07:27:06;8.70;;;1.42;;
20749;SDS011;10535;50.664;4.564;2023-06-26T07:29:32;2.17;;;1.30;;
20749;SDS011;10535;50.664;4.564;2023-06-26T07:31:58;5.15;;;1.65;;
20749;SDS011;10535;50.664;4.564;2023-06-26T07:34:24;3.35;;;1.70;;
20749;SDS011;10535;50.664;4.564;2023-06-26T07:36:50;5.50;;;1.77;;
20749;SDS011;10535;50.664;4.564;2023-06-26T07:39:15;7.22;;;1.50;;
20749;SDS011;10535;50.664;4.564;2023-06-26T07:41:41;4.75;;;1.10;;
20749;SDS011;10535;50.664;4.564;2023-06-26T07:44:06;1.52;;;0.98;;
20749;SDS011;10535;50.664;4.564;2023-06-26T07:46:32;1.15;;;0.98;;
20749;SDS011;10535;50.664;4.564;2023-06-26T07:48:58;3.67;;;1.40;;
20749;SDS011;10535;50.664;4.564;2023-06-26T07:51:23;5.38;;;1.27;;
20749;SDS011;10535;50.664;4.564;2023-06-26T07:53:49;5.35;;;1.35;;
20749;SDS011;10535;50.664;4.564;2023-06-26T07:56:14;8.20;;;2.00;;
20749;SDS011;10535;50.664;4.564;2023-06-26T07:58:42;4.85;;;1.38;;
20749;SDS011;10535;50.664;4.564;2023-06-26T08:01:10;1.63;;;1.15;;
20749;SDS011;10535;50.664;4.564;2023-06-26T08:03:56;5.38;;;1.77;;
20749;SDS011;10535;50.664;4.564;2023-06-26T08:06:48;2.92;;;1.00;;
20749;SDS011;10535;50.664;4.564;2023-06-26T08:09:16;1.40;;;1.10;;
20749;SDS011;10535;50.664;4.564;2023-06-26T08:12:36;3.33;;;1.00;;
20749;SDS011;10535;50.664;4.564;2023-06-26T08:17:46;4.88;;;1.65;;
20749;SDS011;10535;50.664;4.564;2023-06-26T08:20:54;2.83;;;1.23;;
20749;SDS011;10535;50.664;4.564;2023-06-26T08:23:20;3.13;;;1.55;;
20749;SDS011;10535;50.664;4.564;2023-06-26T08:25:47;3.85;;;1.30;;
20749;SDS011;10535;50.664;4.564;2023-06-26T08:28:43;4.78;;;1.70;;
20749;SDS011;10535;50.664;4.564;2023-06-26T08:31:36;5.10;;;1.53;;
20749;SDS011;10535;50.664;4.564;2023-06-26T08:34:21;4.03;;;1.13;;
20749;SDS011;10535;50.664;4.564;2023-06-26T08:36:47;3.08;;;1.10;;
20749;SDS011;10535;50.664;4.564;2023-06-26T08:39:53;1.97;;;0.80;;
20749;SDS011;10535;50.664;4.564;2023-06-26T08:42:21;3.07;;;0.93;;
20749;SDS011;10535;50.664;4.564;2023-06-26T08:45:01;3.13;;;1.07;;
20749;SDS011;10535;50.664;4.564;2023-06-26T08:47:31;3.40;;;0.90;;
20749;SDS011;10535;50.664;4.564;2023-06-26T08:52:40;3.50;;;1.13;;
20749;SDS011;10535;50.664;4.564;2023-06-26T08:55:27;7.68;;;1.50;;
20749;SDS011;10535;50.664;4.564;2023-06-26T08:58:13;2.00;;;1.30;;
20749;SDS011;10535;50.664;4.564;2023-06-26T09:01:01;4.10;;;1.00;;
20749;SDS011;10535;50.664;4.564;2023-06-26T09:03:46;2.80;;;1.33;;
20749;SDS011;10535;50.664;4.564;2023-06-26T09:06:44;3.83;;;1.30;;
20749;SDS011;10535;50.664;4.564;2023-06-26T09:10:10;3.75;;;0.90;;
20749;SDS011;10535;50.664;4.564;2023-06-26T09:13:24;3.28;;;1.02;;
20749;SDS011;10535;50.664;4.564;2023-06-26T09:16:13;1.25;;;1.13;;
20749;SDS011;10535;50.664;4.564;2023-06-26T09:18:44;0.77;;;0.77;;
20749;SDS011;10535;50.664;4.564;2023-06-26T09:21:50;1.40;;;0.93;;
20749;SDS011;10535;50.664;4.564;2023-06-26T09:24:43;5.93;;;0.93;;
20749;SDS011;10535;50.664;4.564;2023-06-26T09:27:43;1.85;;;0.80;;
20749;SDS011;10535;50.664;4.564;2023-06-26T09:30:17;1.48;;;1.10;;
20749;SDS011;10535;50.664;4.564;2023-06-26T09:32:44;1.05;;;0.88;;
20749;SDS011;10535;50.664;4.564;2023-06-26T09:36:30;4.40;;;1.23;;
20749;SDS011;10535;50.664;4.564;2023-06-26T09:39:01;2.75;;;1.25;;
20749;SDS011;10535;50.664;4.564;2023-06-26T09:41:46;3.90;;;1.00;;
20749;SDS011;10535;50.664;4.564;2023-06-26T09:44:13;1.15;;;1.05;;
20749;SDS011;10535;50.664;4.564;2023-06-26T09:46:39;4.83;;;1.37;;
20749;SDS011;10535;50.664;4.564;2023-06-26T09:49:09;5.00;;;1.67;;
20749;SDS011;10535;50.664;4.564;2023-06-26T09:51:37;5.97;;;1.52;;
20749;SDS011;10535;50.664;4.564;2023-06-26T09:54:06;1.02;;;0.77;;
20749;SDS011;10535;50.664;4.564;2023-06-26T09:56:33;4.35;;;1.48;;
20749;SDS011;10535;50.664;4.564;2023-06-26T09:59:00;4.85;;;1.38;;
20749;SDS011;10535;50.664;4.564;2023-06-26T10:01:27;2.20;;;1.02;;
20749;SDS011;10535;50.664;4.564;2023-06-26T10:03:54;3.17;;;1.02;;
20749;SDS011;10535;50.664;4.564;2023-06-26T10:06:28;1.27;;;1.17;;
20749;SDS011;10535;50.664;4.564;2023-06-26T10:09:19;3.73;;;1.40;;
20749;SDS011;10535;50.664;4.564;2023-06-26T10:12:11;2.58;;;1.08;;
20749;SDS011;10535;50.664;4.564;2023-06-26T10:14:48;2.50;;;1.10;;
20749;SDS011;10535;50.664;4.564;2023-06-26T10:17:17;2.50;;;1.00;;
20749;SDS011;10535;50.664;4.564;2023-06-26T10:19:48;4.97;;;1.80;;
20749;SDS011;10535;50.664;4.564;2023-06-26T10:22:16;4.07;;;1.37;;
20749;SDS011;10535;50.664;4.564;2023-06-26T10:24:48;2.97;;;1.35;;
20749;SDS011;10535;50.664;4.564;2023-06-26T10:27:21;2.13;;;1.10;;
20749;SDS011;10535;50.664;4.564;2023-06-26T10:29:54;4.60;;;1.38;;
20749;SDS011;10535;50.664;4.564;2023-06-26T10:32:23;3.47;;;1.33;;
20749;SDS011;10535;50.664;4.564;2023-06-26T10:35:05;4.47;;;1.25;;
20749;SDS011;10535;50.664;4.564;2023-06-26T10:37:44;1.92;;;1.10;;
20749;SDS011;10535;50.664;4.564;2023-06-26T10:40:23;4.10;;;1.25;;
20749;SDS011;10535;50.664;4.564;2023-06-26T10:42:51;2.83;;;1.25;;
20749;SDS011;10535;50.664;4.564;2023-06-26T10:45:20;1.75;;;1.20;;
20749;SDS011;10535;50.664;4.564;2023-06-26T10:47:47;4.50;;;1.05;;
20749;SDS011;10535;50.664;4.564;2023-06-26T10:50:17;1.55;;;0.93;;
20749;SDS011;10535;50.664;4.564;2023-06-26T10:52:45;3.65;;;1.13;;
20749;SDS011;10535;50.664;4.564;2023-06-26T10:55:31;3.85;;;1.10;;
20749;SDS011;10535;50.664;4.564;2023-06-26T10:57:57;2.38;;;1.35;;
20749;SDS011;10535;50.664;4.564;2023-06-26T11:00:22;1.92;;;1.10;;
20749;SDS011;10535;50.664;4.564;2023-06-26T11:02:51;1.23;;;1.05;;
20749;SDS011;10535;50.664;4.564;2023-06-26T11:05:24;3.25;;;1.20;;
20749;SDS011;10535;50.664;4.564;2023-06-26T11:08:06;2.50;;;1.13;;
20749;SDS011;10535;50.664;4.564;2023-06-26T11:10:53;2.65;;;1.52;;
20749;SDS011;10535;50.664;4.564;2023-06-26T11:13:21;5.50;;;1.38;;
20749;SDS011;10535;50.664;4.564;2023-06-26T11:15:47;1.60;;;0.70;;
20749;SDS011;10535;50.664;4.564;2023-06-26T11:18:15;4.13;;;1.58;;
20749;SDS011;10535;50.664;4.564;2023-06-26T11:20:41;1.35;;;1.00;;
20749;SDS011;10535;50.664;4.564;2023-06-26T11:23:07;1.75;;;1.13;;
20749;SDS011;10535;50.664;4.564;2023-06-26T11:25:34;4.57;;;1.27;;
20749;SDS011;10535;50.664;4.564;2023-06-26T11:28:02;2.17;;;1.08;;
20749;SDS011;10535;50.664;4.564;2023-06-26T11:30:34;3.33;;;1.42;;
20749;SDS011;10535;50.664;4.564;2023-06-26T11:35:33;2.78;;;1.05;;
20749;SDS011;10535;50.664;4.564;2023-06-26T11:37:59;3.30;;;1.15;;
20749;SDS011;10535;50.664;4.564;2023-06-26T11:40:29;1.38;;;0.90;;
20749;SDS011;10535;50.664;4.564;2023-06-26T11:42:57;5.03;;;1.20;;
20749;SDS011;10535;50.664;4.564;2023-06-26T11:45:24;1.65;;;0.90;;
20749;SDS011;10535;50.664;4.564;2023-06-26T11:47:54;2.53;;;1.10;;
20749;SDS011;10535;50.664;4.564;2023-06-26T11:50:21;1.63;;;1.17;;
20749;SDS011;10535;50.664;4.564;2023-06-26T11:52:56;1.27;;;0.95;;
20749;SDS011;10535;50.664;4.564;2023-06-26T11:55:23;5.90;;;1.05;;
20749;SDS011;10535;50.664;4.564;2023-06-26T11:57:53;3.17;;;1.45;;
20749;SDS011;10535;50.664;4.564;2023-06-26T12:00:20;3.30;;;1.75;;
20749;SDS011;10535;50.664;4.564;2023-06-26T12:02:46;2.17;;;0.82;;
20749;SDS011;10535;50.664;4.564;2023-06-26T12:05:16;3.38;;;1.00;;
20749;SDS011;10535;50.664;4.564;2023-06-26T12:07:42;1.83;;;1.00;;
20749;SDS011;10535;50.664;4.564;2023-06-26T12:10:11;6.20;;;1.02;;
20749;SDS011;10535;50.664;4.564;2023-06-26T12:12:37;6.60;;;1.33;;
20749;SDS011;10535;50.664;4.564;2023-06-26T12:15:06;1.98;;;1.20;;
20749;SDS011;10535;50.664;4.564;2023-06-26T12:17:32;3.20;;;0.90;;
20749;SDS011;10535;50.664;4.564;2023-06-26T12:19:58;1.42;;;0.68;;
20749;SDS011;10535;50.664;4.564;2023-06-26T12:22:24;4.38;;;1.10;;
20749;SDS011;10535;50.664;4.564;2023-06-26T12:25:14;1.40;;;1.08;;
20749;SDS011;10535;50.664;4.564;2023-06-26T12:27:49;4.70;;;1.20;;
20749;SDS011;10535;50.664;4.564;2023-06-26T12:30:15;3.47;;;1.25;;
20749;SDS011;10535;50.664;4.564;2023-06-26T12:32:44;5.40;;;1.02;;
20749;SDS011;10535;50.664;4.564;2023-06-26T12:35:11;2.40;;;1.00;;
20749;SDS011;10535;50.664;4.564;2023-06-26T12:37:37;1.85;;;1.10;;
20749;SDS011;10535;50.664;4.564;2023-06-26T12:40:09;1.80;;;1.08;;
20749;SDS011;10535;50.664;4.564;2023-06-26T12:42:42;6.00;;;1.58;;
20749;SDS011;10535;50.664;4.564;2023-06-26T12:45:13;1.40;;;1.10;;
20749;SDS011;10535;50.664;4.564;2023-06-26T12:47:39;2.25;;;1.10;;
20749;SDS011;10535;50.664;4.564;2023-06-26T12:50:06;3.10;;;1.27;;
20749;SDS011;10535;50.664;4.564;2023-06-26T12:52:32;1.52;;;1.02;;
20749;SDS011;10535;50.664;4.564;2023-06-26T12:54:58;2.67;;;1.10;;
20749;SDS011;10535;50.664;4.564;2023-06-26T12:57:23;1.20;;;0.73;;
20749;SDS011;10535;50.664;4.564;2023-06-26T12:59:49;1.33;;;0.90;;
20749;SDS011;10535;50.664;4.564;2023-06-26T13:02:18;2.45;;;1.17;;
20749;SDS011;10535;50.664;4.564;2023-06-26T13:05:07;1.20;;;0.80;;
20749;SDS011;10535;50.664;4.564;2023-06-26T13:07:33;3.28;;;1.10;;
20749;SDS011;10535;50.664;4.564;2023-06-26T13:09:59;3.40;;;1.00;;
20749;SDS011;10535;50.664;4.564;2023-06-26T13:12:24;2.67;;;1.17;;
20749;SDS011;10535;50.664;4.564;2023-06-26T13:14:50;6.22;;;1.80;;
20749;SDS011;10535;50.664;4.564;2023-06-26T13:17:15;2.88;;;1.05;;
20749;SDS011;10535;50.664;4.564;2023-06-26T13:19:41;1.38;;;1.00;;
20749;SDS011;10535;50.664;4.564;2023-06-26T13:22:08;5.32;;;1.15;;
20749;SDS011;10535;50.664;4.564;2023-06-26T13:24:34;2.45;;;1.30;;
20749;SDS011;10535;50.664;4.564;2023-06-26T13:26:59;2.28;;;1.02;;
20749;SDS011;10535;50.664;4.564;2023-06-26T13:29:25;1.42;;;1.08;;
20749;SDS011;10535;50.664;4.564;2023-06-26T13:31:51;4.07;;;1.10;;
20749;SDS011;10535;50.664;4.564;2023-06-26T13:34:20;3.15;;;1.13;;
20749;SDS011;10535;50.664;4.564;2023-06-26T13:36:48;5.38;;;1.20;;
20749;SDS011;10535;50.664;4.564;2023-06-26T13:39:16;2.35;;;1.13;;
20749;SDS011;10535;50.664;4.564;2023-06-26T13:41:43;1.85;;;1.10;;
20749;SDS011;10535;50.664;4.564;2023-06-26T13:44:09;4.97;;;0.85;;
20749;SDS011;10535;50.664;4.564;2023-06-26T13:46:34;1.98;;;0.90;;
20749;SDS011;10535;50.664;4.564;2023-06-26T13:49:00;1.63;;;1.02;;
20749;SDS011;10535;50.664;4.564;2023-06-26T13:51:25;2.92;;;1.08;;
20749;SDS011;10535;50.664;4.564;2023-06-26T13:53:56;3.97;;;0.98;;
20749;SDS011;10535;50.664;4.564;2023-06-26T13:56:25;5.53;;;1.30;;
20749;SDS011;10535;50.664;4.564;2023-06-26T13:58:50;1.75;;;1.10;;
20749;SDS011;10535;50.664;4.564;2023-06-26T14:01:26;2.45;;;1.20;;
20749;SDS011;10535;50.664;4.564;2023-06-26T14:03:55;1.38;;;1.10;;
20749;SDS011;10535;50.664;4.564;2023-06-26T14:06:42;1.23;;;0.80;;
20749;SDS011;10535;50.664;4.564;2023-06-26T14:09:08;1.70;;;1.10;;
20749;SDS011;10535;50.664;4.564;2023-06-26T14:11:35;3.17;;;1.30;;
20749;SDS011;10535;50.664;4.564;2023-06-26T14:14:00;1.55;;;0.90;;
20749;SDS011;10535;50.664;4.564;2023-06-26T14:16:26;2.88;;;1.05;;
20749;SDS011;10535;50.664;4.564;2023-06-26T14:19:52;2.53;;;1.30;;
20749;SDS011;10535;50.664;4.564;2023-06-26T14:22:42;1.25;;;0.77;;
20749;SDS011;10535;50.664;4.564;2023-06-26T14:25:36;4.72;;;0.98;;
20749;SDS011;10535;50.664;4.564;2023-06-26T14:28:03;4.45;;;1.50;;
20749;SDS011;10535;50.664;4.564;2023-06-26T14:30:29;3.15;;;1.20;;
20749;SDS011;10535;50.664;4.564;2023-06-26T14:32:55;2.97;;;1.45;;
20749;SDS011;10535;50.664;4.564;2023-06-26T14:35:20;3.90;;;1.27;;
20749;SDS011;10535;50.664;4.564;2023-06-26T14:38:29;3.50;;;1.55;;
20749;SDS011;10535;50.664;4.564;2023-06-26T14:40:59;3.08;;;0.93;;
20749;SDS011;10535;50.664;4.564;2023-06-26T14:43:26;4.35;;;1.10;;
20749;SDS011;10535;50.664;4.564;2023-06-26T14:46:07;3.85;;;1.33;;
20749;SDS011;10535;50.664;4.564;2023-06-26T14:48:41;2.00;;;0.85;;
20749;SDS011;10535;50.664;4.564;2023-06-26T14:51:06;4.15;;;1.38;;
20749;SDS011;10535;50.664;4.564;2023-06-26T14:53:32;2.80;;;0.90;;
20749;SDS011;10535;50.664;4.564;2023-06-26T14:55:58;4.07;;;1.27;;
20749;SDS011;10535;50.664;4.564;2023-06-26T14:58:23;6.05;;;1.02;;
20749;SDS011;10535;50.664;4.564;2023-06-26T15:00:52;3.03;;;0.80;;
20749;SDS011;10535;50.664;4.564;2023-06-26T15:03:22;4.85;;;1.13;;
20749;SDS011;10535;50.664;4.564;2023-06-26T15:06:24;2.78;;;1.05;;
20749;SDS011;10535;50.664;4.564;2023-06-26T15:09:18;1.95;;;0.80;;
20749;SDS011;10535;50.664;4.564;2023-06-26T15:12:11;1.42;;;0.70;;
20749;SDS011;10535;50.664;4.564;2023-06-26T15:14:38;1.17;;;0.70;;
20749;SDS011;10535;50.664;4.564;2023-06-26T15:17:44;3.92;;;1.05;;
20749;SDS011;10535;50.664;4.564;2023-06-26T15:20:17;0.93;;;0.60;;